createdAt,value
2022-11-24T00:01:15.785Z,25.15
2022-11-24T00:03:44.467Z,27.08
2022-11-24T00:06:16.106Z,26.60
2022-11-24T00:08:45.842Z,22.35
2022-11-24T00:11:16.133Z,30.60
2022-11-24T00:13:44.284Z,22.58
2022-11-24T00:16:18.782Z,25.50
2022-11-24T00:18:47.965Z,27.90
2022-11-24T00:21:16.620Z,25.00
2022-11-24T00:23:43.790Z,26.80
2022-11-24T00:26:13.752Z,26.92
2022-11-24T00:28:42.342Z,24.17
2022-11-24T00:31:23.349Z,21.48
2022-11-24T00:33:52.996Z,21.25
2022-11-24T00:36:21.403Z,22.17
2022-11-24T00:38:52.672Z,23.83
2022-11-24T00:41:19.699Z,26.10
2022-11-24T00:43:46.708Z,23.65
2022-11-24T00:46:13.876Z,21.52
2022-11-24T00:48:41.273Z,25.27
2022-11-24T00:51:11.130Z,24.08
2022-11-24T00:53:38.155Z,24.55
2022-11-24T00:56:06.276Z,23.30
2022-11-24T00:58:34.532Z,23.00
2022-11-24T01:01:07.830Z,24.30
2022-11-24T01:03:35.402Z,23.67
2022-11-24T01:06:16.952Z,35.22
2022-11-24T01:08:44.446Z,24.30
2022-11-24T01:11:16.633Z,26.48
2022-11-24T01:13:46.098Z,29.48
2022-11-24T01:16:22.867Z,22.25
2022-11-24T01:18:50.190Z,22.73
2022-11-24T01:21:18.040Z,28.20
2022-11-24T01:23:45.332Z,31.17
2022-11-24T01:26:15.645Z,26.98
2022-11-24T01:28:47.223Z,22.25
2022-11-24T01:31:16.284Z,22.02
2022-11-24T01:33:43.681Z,20.77
2022-11-24T01:36:10.922Z,27.65
2022-11-24T01:38:38.124Z,24.88
2022-11-24T01:41:08.338Z,25.58
2022-11-24T01:43:35.618Z,26.63
2022-11-24T01:46:25.276Z,28.70
2022-11-24T01:49:18.071Z,28.48
2022-11-24T01:52:14.378Z,25.90
2022-11-24T01:54:48.886Z,24.25
2022-11-24T01:57:23.869Z,23.60
2022-11-24T01:59:55.277Z,24.05
2022-11-24T02:02:22.954Z,25.02
2022-11-24T02:04:51.243Z,27.73
2022-11-24T02:07:18.988Z,33.03
2022-11-24T02:09:49.633Z,29.80
2022-11-24T02:12:16.620Z,24.77
2022-11-24T02:14:45.046Z,28.08
2022-11-24T02:17:12.459Z,25.05
2022-11-24T02:19:58.801Z,31.17
2022-11-24T02:22:46.363Z,29.30
2022-11-24T02:25:35.233Z,28.92
2022-11-24T02:28:06.189Z,26.33
2022-11-24T02:30:33.403Z,30.77
2022-11-24T02:33:00.901Z,24.60
2022-11-24T02:35:28.718Z,31.77
2022-11-24T02:37:55.875Z,26.58
2022-11-24T02:40:25.847Z,26.67
2022-11-24T02:43:01.706Z,25.17
2022-11-24T02:45:29.601Z,27.10
2022-11-24T02:47:56.628Z,21.63
2022-11-24T02:50:23.819Z,17.80
2022-11-24T02:52:50.934Z,26.42
2022-11-24T02:55:18.078Z,20.88
2022-11-24T02:57:45.099Z,20.95
2022-11-24T03:00:12.693Z,22.58
2022-11-24T03:02:40.638Z,21.30
2022-11-24T03:05:08.033Z,24.25
2022-11-24T03:07:35.149Z,22.85
2022-11-24T03:10:02.259Z,19.50
2022-11-24T03:12:29.258Z,13.70
2022-11-24T03:14:56.288Z,12.13
2022-11-24T03:17:23.350Z,16.05
2022-11-24T03:19:50.383Z,15.80
2022-11-24T03:22:17.503Z,13.98
2022-11-24T03:24:44.823Z,14.93
2022-11-24T03:27:11.874Z,21.13
2022-11-24T03:29:39.022Z,16.15
2022-11-24T03:32:06.246Z,16.98
2022-11-24T03:34:33.575Z,13.38
2022-11-24T03:37:00.854Z,15.13
2022-11-24T03:39:27.861Z,13.63
2022-11-24T03:41:54.903Z,16.20
2022-11-24T03:44:21.923Z,12.90
2022-11-24T03:46:49.099Z,13.40
2022-11-24T03:49:16.121Z,15.45
2022-11-24T03:51:43.165Z,11.95
2022-11-24T03:54:10.220Z,14.98
2022-11-24T03:56:37.641Z,14.50
2022-11-24T03:59:04.679Z,14.20
2022-11-24T04:01:31.890Z,14.77
2022-11-24T04:03:59.009Z,12.48
2022-11-24T04:06:26.116Z,14.88
2022-11-24T04:08:53.584Z,15.70
2022-11-24T04:11:46.786Z,13.90
2022-11-24T04:14:14.034Z,14.02
2022-11-24T04:16:41.742Z,16.58
2022-11-24T04:19:08.737Z,13.88
2022-11-24T04:21:35.833Z,12.98
2022-11-24T04:24:02.842Z,13.48
2022-11-24T04:26:29.843Z,13.75
2022-11-24T04:28:56.850Z,14.82
2022-11-24T04:31:23.958Z,15.18
2022-11-24T04:33:50.981Z,13.40
2022-11-24T04:36:18.140Z,14.50
2022-11-24T04:39:23.729Z,18.00
2022-11-24T04:41:32.172Z,17.38
2022-11-24T04:43:59.179Z,13.93
2022-11-24T04:46:26.226Z,14.13
2022-11-24T04:48:53.263Z,15.05
2022-11-24T04:51:20.336Z,16.65
2022-11-24T04:53:49.676Z,14.02
2022-11-24T04:56:16.784Z,11.73
2022-11-24T04:58:43.838Z,12.18
2022-11-24T05:01:10.974Z,16.77
2022-11-24T05:03:37.962Z,14.20
2022-11-24T05:06:05.319Z,19.08
2022-11-24T05:08:32.333Z,24.02
2022-11-24T05:11:05.156Z,12.43
2022-11-24T05:13:32.242Z,16.55
2022-11-24T05:16:00.405Z,15.27
2022-11-24T05:18:27.417Z,11.52
2022-11-24T05:20:55.070Z,10.98
2022-11-24T05:23:22.033Z,21.20
2022-11-24T05:25:49.085Z,11.95
2022-11-24T05:28:17.034Z,11.38
2022-11-24T05:30:45.000Z,13.00
2022-11-24T05:33:20.230Z,13.63
2022-11-24T05:35:48.613Z,11.80
2022-11-24T05:38:17.132Z,13.75
2022-11-24T05:40:44.605Z,12.20
2022-11-24T05:43:16.712Z,15.50
2022-11-24T05:45:44.538Z,13.95
2022-11-24T05:48:14.928Z,11.13
2022-11-24T05:50:42.458Z,14.13
2022-11-24T05:53:12.195Z,14.27
2022-11-24T05:55:40.747Z,15.05
2022-11-24T05:58:08.922Z,14.25
2022-11-24T06:00:36.332Z,12.45
2022-11-24T06:03:03.617Z,13.98
2022-11-24T06:05:30.978Z,16.13
2022-11-24T06:07:59.626Z,13.40
2022-11-24T06:10:26.750Z,14.85
2022-11-24T06:12:53.848Z,11.10
2022-11-24T06:15:20.885Z,10.88
2022-11-24T06:17:55.770Z,8.20
2022-11-24T06:20:27.209Z,14.32
2022-11-24T06:22:59.219Z,9.23
2022-11-24T06:25:26.509Z,13.15
2022-11-24T06:27:53.443Z,21.13
2022-11-24T06:30:20.387Z,11.50
2022-11-24T06:32:49.706Z,16.33
2022-11-24T06:35:17.107Z,12.77
2022-11-24T06:37:43.975Z,11.23
2022-11-24T06:40:11.039Z,10.77
2022-11-24T06:42:38.042Z,19.48
2022-11-24T06:45:09.010Z,15.95
2022-11-24T06:47:36.509Z,13.25
2022-11-24T06:50:03.635Z,11.95
2022-11-24T06:52:30.686Z,11.27
2022-11-24T06:54:57.551Z,9.73
2022-11-24T06:57:24.357Z,13.18
2022-11-24T06:59:51.260Z,14.73
2022-11-24T07:02:18.064Z,15.60
2022-11-24T07:04:44.922Z,13.13
2022-11-24T07:07:12.740Z,18.17
2022-11-24T07:09:39.588Z,23.60
2022-11-24T07:12:06.709Z,15.18
2022-11-24T07:14:33.762Z,24.50
2022-11-24T07:17:02.618Z,13.65
2022-11-24T07:19:29.561Z,15.93
2022-11-24T07:21:56.809Z,14.80
2022-11-24T07:24:23.599Z,30.30
2022-11-24T07:26:50.577Z,20.17
2022-11-24T07:29:17.365Z,16.50
2022-11-24T07:31:46.118Z,14.82
2022-11-24T07:34:14.795Z,15.63
2022-11-24T07:36:42.733Z,19.10
2022-11-24T07:39:09.750Z,21.70
2022-11-24T07:41:36.559Z,14.73
2022-11-24T07:44:03.478Z,15.95
2022-11-24T07:46:30.398Z,25.67
2022-11-24T07:48:57.212Z,21.75
2022-11-24T07:51:24.212Z,19.02
2022-11-24T07:53:51.057Z,18.70
2022-11-24T07:56:17.905Z,19.33
2022-11-24T07:58:49.702Z,19.13
2022-11-24T08:01:19.536Z,24.90
2022-11-24T08:03:46.951Z,18.30
2022-11-24T08:06:37.508Z,18.52
2022-11-24T08:09:01.337Z,24.55
2022-11-24T08:11:28.660Z,33.00
2022-11-24T08:13:55.550Z,16.35
2022-11-24T08:16:22.962Z,27.30
2022-11-24T08:18:52.174Z,17.58
2022-11-24T08:21:19.501Z,20.33
2022-11-24T08:23:46.505Z,17.48
2022-11-24T08:26:17.641Z,20.42
2022-11-24T08:28:45.397Z,17.90
2022-11-24T08:31:14.772Z,28.98
2022-11-24T08:33:42.619Z,29.58
2022-11-24T08:36:14.829Z,16.63
2022-11-24T08:38:42.377Z,14.38
2022-11-24T08:41:12.277Z,15.68
2022-11-24T08:43:39.301Z,16.30
2022-11-24T08:46:16.964Z,19.90
2022-11-24T08:48:48.697Z,16.25
2022-11-24T08:51:19.166Z,13.95
2022-11-24T08:53:46.556Z,16.58
2022-11-24T08:56:14.303Z,18.27
2022-11-24T08:58:41.462Z,30.85
2022-11-24T09:01:14.540Z,18.38
2022-11-24T09:03:49.726Z,17.50
2022-11-24T09:06:23.016Z,13.95
2022-11-24T09:08:50.369Z,11.45
2022-11-24T09:11:17.801Z,16.27
2022-11-24T09:13:45.408Z,19.70
2022-11-24T09:16:17.833Z,16.98
2022-11-24T09:18:45.125Z,14.07
2022-11-24T09:21:13.096Z,19.10
2022-11-24T09:23:40.734Z,13.38
2022-11-24T09:26:10.377Z,15.80
2022-11-24T09:28:37.353Z,16.73
2022-11-24T09:31:07.059Z,17.15
2022-11-24T09:33:34.758Z,19.02
2022-11-24T09:36:01.958Z,15.57
2022-11-24T09:38:28.987Z,22.02
2022-11-24T09:40:56.141Z,16.88
2022-11-24T09:43:35.230Z,16.85
2022-11-24T09:46:13.952Z,14.88
2022-11-24T09:48:44.070Z,12.23
2022-11-24T09:51:13.595Z,20.15
2022-11-24T09:53:55.112Z,29.30
2022-11-24T09:56:23.413Z,21.20
2022-11-24T09:58:54.312Z,15.45
2022-11-24T10:01:24.493Z,23.58
2022-11-24T10:03:53.231Z,20.42
2022-11-24T10:06:25.279Z,12.95
2022-11-24T10:09:15.164Z,31.40
2022-11-24T10:12:10.235Z,17.40
2022-11-24T10:14:59.049Z,18.15
2022-11-24T10:17:54.010Z,19.73
2022-11-24T10:20:29.545Z,17.27
2022-11-24T10:23:12.592Z,19.70
2022-11-24T10:25:54.310Z,51.08
2022-11-24T10:28:21.120Z,14.98
2022-11-24T10:30:49.839Z,17.48
2022-11-24T10:33:28.771Z,15.23
2022-11-24T10:36:11.550Z,19.08
2022-11-24T10:38:47.592Z,14.70
2022-11-24T10:41:36.808Z,17.08
2022-11-24T10:44:03.638Z,23.80
2022-11-24T10:46:36.264Z,13.30
2022-11-24T10:49:06.499Z,19.00
2022-11-24T10:51:51.514Z,18.42
2022-11-24T10:54:21.887Z,12.27
2022-11-24T10:56:51.972Z,18.95
2022-11-24T10:59:24.778Z,18.55
2022-11-24T11:01:52.927Z,24.17
2022-11-24T11:04:34.608Z,19.63
2022-11-24T11:07:27.621Z,23.70
2022-11-24T11:10:23.811Z,14.63
2022-11-24T11:12:51.117Z,11.02
2022-11-24T11:15:27.543Z,17.63
2022-11-24T11:17:58.839Z,16.50
2022-11-24T11:20:32.581Z,16.55
2022-11-24T11:23:03.522Z,24.20
2022-11-24T11:25:35.457Z,32.08
2022-11-24T11:28:29.676Z,25.13
2022-11-24T11:34:06.154Z,18.17
2022-11-24T11:36:41.722Z,23.30
2022-11-24T11:39:18.502Z,17.23
2022-11-24T11:41:48.261Z,21.85
2022-11-24T11:44:41.077Z,15.50
2022-11-24T11:47:48.789Z,10.93
2022-11-24T11:50:17.689Z,24.10
2022-11-24T11:53:06.412Z,14.23
2022-11-24T11:55:36.200Z,13.82
2022-11-24T11:58:33.880Z,31.17
2022-11-24T12:01:20.962Z,14.10
2022-11-24T12:04:02.218Z,19.80
2022-11-24T12:06:57.475Z,32.72
2022-11-24T12:09:30.237Z,33.38
2022-11-24T12:12:18.571Z,21.17
2022-11-24T12:15:10.704Z,25.77
2022-11-24T12:17:41.004Z,18.60
2022-11-24T12:20:44.982Z,19.52
2022-11-24T12:23:30.269Z,13.55
2022-11-24T12:26:09.413Z,13.77
2022-11-24T12:29:13.717Z,20.35
2022-11-24T12:32:03.729Z,19.13
2022-11-24T12:35:02.807Z,14.55
2022-11-24T12:37:53.653Z,22.40
2022-11-24T12:40:46.616Z,14.50
2022-11-24T12:43:24.328Z,12.98
2022-11-24T12:46:34.470Z,24.10
2022-11-24T12:49:20.776Z,12.40
2022-11-24T12:51:54.808Z,16.27
2022-11-24T12:54:23.500Z,23.13
2022-11-24T12:56:58.509Z,17.48
2022-11-24T12:59:40.294Z,16.15
2022-11-24T13:02:42.181Z,17.25
2022-11-24T13:05:28.734Z,19.63
2022-11-24T13:08:02.541Z,12.10
2022-11-24T13:13:24.002Z,14.70
2022-11-24T13:18:44.222Z,13.55
2022-11-24T13:21:32.875Z,15.15
2022-11-24T13:24:24.256Z,14.57
2022-11-24T13:27:15.110Z,14.55
2022-11-24T13:29:49.419Z,18.85
2022-11-24T13:32:18.934Z,13.95
2022-11-24T13:34:45.915Z,12.40
2022-11-24T13:37:34.473Z,15.73
2022-11-24T13:40:11.857Z,22.90
2022-11-24T13:43:02.117Z,22.92
2022-11-24T13:45:41.691Z,27.10
2022-11-24T13:48:20.669Z,22.02
2022-11-24T13:50:50.746Z,16.00
2022-11-24T13:53:38.525Z,17.77
2022-11-24T13:56:14.255Z,15.73
2022-11-24T13:58:45.580Z,18.25
2022-11-24T14:01:42.542Z,24.42
2022-11-24T14:04:30.605Z,22.35
2022-11-24T14:07:08.417Z,15.57
2022-11-24T14:09:42.020Z,20.40
2022-11-24T14:12:20.209Z,18.40
2022-11-24T14:14:49.317Z,14.65
2022-11-24T14:17:20.794Z,16.90
2022-11-24T14:19:50.049Z,23.00
2022-11-24T14:22:21.412Z,27.23
2022-11-24T14:24:57.287Z,32.25
2022-11-24T14:27:31.316Z,20.58
2022-11-24T14:30:01.197Z,16.02
2022-11-24T14:32:28.365Z,15.15
2022-11-24T14:34:55.775Z,18.73
2022-11-24T14:37:23.039Z,35.13
2022-11-24T14:39:49.903Z,25.30
2022-11-24T14:42:25.442Z,15.90
2022-11-24T14:44:56.561Z,15.02
2022-11-24T14:47:32.691Z,23.48
2022-11-24T14:50:22.646Z,19.63
2022-11-24T14:52:57.930Z,22.00
2022-11-24T14:55:26.235Z,14.82
2022-11-24T14:57:53.204Z,23.75
2022-11-24T15:00:25.822Z,17.50
2022-11-24T15:03:16.971Z,20.27
2022-11-24T15:05:51.738Z,15.35
2022-11-24T15:08:18.803Z,13.35
2022-11-24T15:10:46.119Z,29.48
2022-11-24T15:13:20.010Z,18.02
2022-11-24T15:15:54.424Z,14.10
2022-11-24T15:18:31.367Z,16.58
2022-11-24T15:20:58.248Z,19.27
2022-11-24T15:23:35.561Z,18.63
2022-11-24T15:26:02.329Z,16.48
2022-11-24T15:28:30.601Z,17.50
2022-11-24T15:31:01.787Z,18.85
2022-11-24T15:33:29.484Z,17.48
2022-11-24T15:35:56.644Z,20.80
2022-11-24T15:38:24.061Z,20.85
2022-11-24T15:40:53.608Z,18.92
2022-11-24T15:43:26.441Z,20.98
2022-11-24T15:45:53.241Z,20.00
2022-11-24T15:48:20.024Z,23.83
2022-11-24T15:50:47.699Z,23.90
2022-11-24T15:53:25.853Z,18.75
2022-11-24T15:55:53.264Z,18.13
2022-11-24T15:58:20.083Z,19.23
2022-11-24T16:00:46.936Z,18.13
2022-11-24T16:03:45.062Z,24.85
2022-11-24T16:06:00.642Z,23.17
2022-11-24T16:08:27.442Z,20.35
2022-11-24T16:10:54.269Z,18.65
2022-11-24T16:13:21.053Z,20.98
2022-11-24T16:15:47.813Z,23.40
2022-11-24T16:18:14.835Z,18.60
2022-11-24T16:20:41.619Z,22.35
2022-11-24T16:23:08.449Z,17.10
2022-11-24T16:25:35.465Z,19.58
2022-11-24T16:28:02.479Z,19.13
2022-11-24T16:30:29.368Z,20.77
2022-11-24T16:32:56.173Z,22.40
2022-11-24T16:35:23.056Z,22.20
2022-11-24T16:37:49.929Z,25.52
2022-11-24T16:40:18.199Z,22.25
2022-11-24T16:42:44.960Z,22.63
2022-11-24T16:45:13.009Z,20.70
2022-11-24T16:47:41.682Z,21.85
2022-11-24T16:50:10.248Z,24.80
2022-11-24T16:52:37.617Z,22.58
2022-11-24T16:55:06.345Z,21.45
2022-11-24T16:57:33.267Z,21.10
2022-11-24T17:00:00.158Z,21.67
2022-11-24T17:02:26.985Z,23.23
2022-11-24T17:04:53.862Z,21.33
2022-11-24T17:07:20.757Z,26.98
2022-11-24T17:09:48.399Z,30.40
2022-11-24T17:12:15.228Z,34.80
2022-11-24T17:14:41.986Z,37.47
2022-11-24T17:17:08.921Z,36.97
2022-11-24T17:19:35.699Z,36.83
2022-11-24T17:22:02.699Z,37.72
2022-11-24T17:24:29.493Z,29.75
2022-11-24T17:26:56.313Z,34.47
2022-11-24T17:29:23.144Z,38.60
2022-11-24T17:31:49.993Z,34.80
2022-11-24T17:34:16.917Z,34.08
2022-11-24T17:36:45.994Z,36.80
2022-11-24T17:39:12.828Z,38.28
2022-11-24T17:41:39.780Z,35.28
2022-11-24T17:44:08.628Z,39.20
2022-11-24T17:46:37.190Z,42.08
2022-11-24T17:49:04.033Z,40.28
2022-11-24T17:51:30.867Z,35.33
2022-11-24T17:53:57.896Z,42.85
2022-11-24T17:56:27.153Z,34.53
2022-11-24T17:58:59.575Z,22.73
2022-11-24T18:01:28.668Z,19.60
2022-11-24T18:03:55.838Z,31.88
2022-11-24T18:06:25.347Z,29.23
2022-11-24T18:08:52.836Z,25.73
2022-11-24T18:11:31.514Z,26.77
2022-11-24T18:14:02.544Z,33.05
2022-11-24T18:16:31.502Z,31.90
2022-11-24T18:19:10.071Z,22.65
2022-11-24T18:21:39.051Z,30.25
2022-11-24T18:24:06.890Z,29.67
2022-11-24T18:26:33.634Z,23.90
2022-11-24T18:29:00.432Z,27.60
2022-11-24T18:31:27.380Z,32.15
2022-11-24T18:33:54.200Z,26.25
2022-11-24T18:36:28.400Z,30.35
2022-11-24T18:38:56.992Z,31.00
2022-11-24T18:41:23.771Z,33.60
2022-11-24T18:43:50.555Z,28.73
2022-11-24T18:46:18.304Z,38.20
2022-11-24T18:48:45.815Z,31.55
2022-11-24T18:51:15.759Z,33.55
2022-11-24T18:53:44.034Z,29.92
2022-11-24T18:56:16.622Z,35.83
2022-11-24T18:58:44.490Z,28.13
2022-11-24T19:01:19.709Z,38.28
2022-11-24T19:03:49.492Z,33.33
2022-11-24T19:06:18.849Z,28.23
2022-11-24T19:08:46.264Z,28.42
2022-11-24T19:11:28.363Z,33.80
2022-11-24T19:13:56.545Z,31.27
2022-11-24T19:16:24.415Z,31.85
2022-11-24T19:18:54.331Z,33.88
2022-11-24T19:21:22.591Z,36.03
2022-11-24T19:23:50.151Z,31.58
2022-11-24T19:26:17.411Z,33.55
2022-11-24T19:28:44.493Z,34.97
2022-11-24T19:31:13.480Z,31.02
2022-11-24T19:33:41.302Z,30.75
2022-11-24T19:36:19.522Z,39.53
2022-11-24T19:38:51.256Z,41.40
2022-11-24T19:41:19.711Z,37.75
2022-11-24T19:43:47.476Z,38.47
2022-11-24T19:46:17.031Z,41.90
2022-11-24T19:48:46.385Z,29.67
2022-11-24T19:51:16.109Z,48.05
2022-11-24T19:53:43.816Z,42.10
2022-11-24T19:56:21.825Z,47.17
2022-11-24T19:58:49.567Z,42.30
2022-11-24T20:01:25.178Z,35.78
2022-11-24T20:03:55.068Z,47.75
2022-11-24T20:06:21.879Z,41.88
2022-11-24T20:08:48.863Z,40.55
2022-11-24T20:11:19.399Z,44.50
2022-11-24T20:13:47.791Z,37.30
2022-11-24T20:16:17.132Z,45.70
2022-11-24T20:18:45.932Z,39.97
2022-11-24T20:21:18.437Z,38.97
2022-11-24T20:23:51.043Z,35.25
2022-11-24T20:26:20.820Z,35.55
2022-11-24T20:28:47.906Z,41.13
2022-11-24T20:31:27.552Z,40.10
2022-11-24T20:33:54.564Z,45.70
2022-11-24T20:36:23.836Z,39.58
2022-11-24T20:38:51.775Z,45.13
2022-11-24T20:41:25.675Z,50.92
2022-11-24T20:43:53.456Z,53.97
2022-11-24T20:46:26.716Z,46.90
2022-11-24T20:48:54.680Z,40.35
2022-11-24T20:51:27.079Z,49.88
2022-11-24T20:53:56.463Z,40.55
2022-11-24T20:56:25.807Z,38.92
2022-11-24T20:58:53.060Z,35.45
2022-11-24T21:01:45.463Z,47.25
2022-11-24T21:04:17.104Z,40.55
2022-11-24T21:06:44.211Z,48.45
2022-11-24T21:09:11.444Z,42.53
2022-11-24T21:11:39.330Z,40.67
2022-11-24T21:14:07.051Z,31.85
2022-11-24T21:16:36.837Z,34.20
2022-11-24T21:19:07.153Z,36.38
2022-11-24T21:21:35.822Z,40.10
2022-11-24T21:24:05.421Z,38.58
2022-11-24T21:26:35.902Z,33.67
2022-11-24T21:29:03.673Z,40.90
2022-11-24T21:31:30.504Z,44.08
2022-11-24T21:33:57.325Z,44.13
2022-11-24T21:36:25.805Z,38.35
2022-11-24T21:38:57.343Z,39.20
2022-11-24T21:41:26.878Z,34.75
2022-11-24T21:43:57.639Z,44.25
2022-11-24T21:46:25.133Z,31.95
2022-11-24T21:48:52.019Z,40.35
2022-11-24T21:51:20.768Z,41.60
2022-11-24T21:53:48.170Z,46.10
2022-11-24T21:56:22.173Z,45.85
2022-11-24T21:58:53.859Z,44.70
2022-11-24T22:01:26.113Z,38.83
2022-11-24T22:03:53.052Z,37.42
2022-11-24T22:06:20.667Z,39.63
2022-11-24T22:08:48.559Z,43.03
2022-11-24T22:11:18.057Z,44.50
2022-11-24T22:13:44.925Z,40.90
2022-11-24T22:16:14.444Z,46.55
2022-11-24T22:18:42.796Z,43.70
2022-11-24T22:21:22.460Z,43.63
2022-11-24T22:23:52.528Z,40.10
2022-11-24T22:26:21.616Z,39.00
2022-11-24T22:28:49.045Z,38.33
2022-11-24T22:31:20.020Z,38.35
2022-11-24T22:33:47.446Z,41.30
2022-11-24T22:36:15.544Z,38.55
2022-11-24T22:38:42.724Z,33.97
2022-11-24T22:41:12.012Z,49.08
2022-11-24T22:43:40.820Z,41.97
2022-11-24T22:46:11.222Z,36.22
2022-11-24T22:48:38.809Z,39.40
2022-11-24T22:51:07.572Z,47.97
2022-11-24T22:53:34.576Z,41.75
2022-11-24T22:56:20.799Z,43.10
2022-11-24T22:58:47.971Z,49.13
2022-11-24T23:01:17.624Z,42.80
2022-11-24T23:03:44.591Z,40.75
2022-11-24T23:06:20.760Z,43.60
2022-11-24T23:08:48.306Z,40.08
2022-11-24T23:11:29.093Z,52.60
2022-11-24T23:14:02.914Z,38.45
2022-11-24T23:16:31.776Z,43.47
2022-11-24T23:18:58.756Z,41.75
2022-11-24T23:21:28.107Z,41.72
2022-11-24T23:23:55.955Z,42.30
2022-11-24T23:26:28.138Z,45.28
2022-11-24T23:28:55.331Z,40.70
2022-11-24T23:31:27.400Z,45.92
2022-11-24T23:33:58.656Z,38.85
2022-11-24T23:36:26.277Z,44.70
2022-11-24T23:38:53.173Z,43.22
2022-11-24T23:41:22.999Z,40.50
2022-11-24T23:43:49.890Z,38.30
2022-11-24T23:46:22.938Z,38.47
2022-11-24T23:48:51.355Z,43.85
2022-11-24T23:51:24.825Z,39.13
2022-11-24T23:53:52.795Z,46.70
2022-11-24T23:56:39.894Z,47.47
2022-11-24T23:59:06.766Z,51.55
